createdAt,value
2017-08-08T00:00:27.515Z,98721.66
2017-08-08T00:02:55.070Z,98722.98
2017-08-08T00:05:22.592Z,98719.11
2017-08-08T00:07:50.233Z,98715.47
2017-08-08T00:10:17.752Z,98713.23
2017-08-08T00:12:45.301Z,98714.73
2017-08-08T00:15:12.823Z,98708.73
2017-08-08T00:17:40.382Z,98700.41
2017-08-08T00:20:07.888Z,98704.63
2017-08-08T00:22:35.465Z,98707.77
2017-08-08T00:25:03.003Z,98706.38
2017-08-08T00:27:30.518Z,98699.79
2017-08-08T00:29:58.060Z,98694.05
2017-08-08T00:32:25.578Z,98691.79
2017-08-08T00:34:53.135Z,98683.94
2017-08-08T00:37:20.664Z,98687.27
2017-08-08T00:39:48.222Z,98686.94
2017-08-08T00:42:15.766Z,98685.38
2017-08-08T00:44:43.318Z,98686.98
2017-08-08T00:47:10.837Z,98681.53
2017-08-08T00:49:38.406Z,98679.47
2017-08-08T00:52:05.936Z,98680.94
2017-08-08T00:54:33.453Z,98680.02
2017-08-08T00:57:00.998Z,98675.34
2017-08-08T00:59:28.527Z,98677.87
2017-08-08T01:01:56.090Z,98677.69
2017-08-08T01:04:23.612Z,98674.58
2017-08-08T01:06:51.258Z,98665.48
2017-08-08T01:09:18.775Z,98662.65
2017-08-08T01:11:46.341Z,98658.73
2017-08-08T01:14:13.876Z,98656.48
2017-08-08T01:16:41.425Z,98658.30
2017-08-08T01:19:08.980Z,98662.30
2017-08-08T01:21:36.530Z,98664.00
2017-08-08T01:24:04.085Z,98660.88
2017-08-08T01:26:31.617Z,98664.39
2017-08-08T01:28:59.194Z,98666.00
2017-08-08T01:31:26.704Z,98663.32
2017-08-08T01:33:54.248Z,98662.34
2017-08-08T01:36:21.765Z,98659.71
2017-08-08T01:38:49.318Z,98664.36
2017-08-08T01:41:16.838Z,98658.63
2017-08-08T01:43:44.388Z,98655.33
2017-08-08T01:46:11.913Z,98655.12
2017-08-08T01:48:39.482Z,98636.19
2017-08-08T01:51:07.031Z,98634.50
2017-08-08T01:53:34.593Z,98632.73
2017-08-08T01:56:02.148Z,98640.69
2017-08-08T01:58:29.676Z,98632.67
2017-08-08T02:00:57.244Z,98630.70
2017-08-08T02:03:24.780Z,98627.34
2017-08-08T02:05:52.359Z,98627.73
2017-08-08T02:08:19.906Z,98635.84
2017-08-08T02:10:47.485Z,98636.31
2017-08-08T02:13:15.071Z,98631.27
2017-08-08T02:15:42.632Z,98635.46
2017-08-08T02:18:10.183Z,98637.08
2017-08-08T02:20:37.718Z,98629.37
2017-08-08T02:23:05.273Z,98618.12
2017-08-08T02:25:32.864Z,98617.57
2017-08-08T02:28:00.418Z,98612.09
2017-08-08T02:30:27.933Z,98619.45
2017-08-08T02:32:55.550Z,98614.60
2017-08-08T02:35:23.106Z,98620.19
2017-08-08T02:37:50.632Z,98625.45
2017-08-08T02:40:18.187Z,98619.33
2017-08-08T02:42:45.705Z,98614.23
2017-08-08T02:45:13.257Z,98603.58
2017-08-08T02:47:40.782Z,98603.85
2017-08-08T02:50:08.335Z,98596.83
2017-08-08T02:52:35.862Z,98593.55
2017-08-08T02:55:03.432Z,98601.59
2017-08-08T02:57:30.967Z,98600.74
2017-08-08T02:59:58.536Z,98597.02
2017-08-08T03:02:26.051Z,98591.16
2017-08-08T03:04:53.569Z,98581.62
2017-08-08T03:07:21.116Z,98580.00
2017-08-08T03:09:48.633Z,98583.69
2017-08-08T03:12:16.192Z,98575.45
2017-08-08T03:14:43.713Z,98575.08
2017-08-08T03:17:11.263Z,98569.31
2017-08-08T03:19:38.778Z,98574.76
2017-08-08T03:22:06.369Z,98565.21
2017-08-08T03:24:33.892Z,98559.95
2017-08-08T03:27:01.413Z,98558.97
2017-08-08T03:29:28.958Z,98548.22
2017-08-08T03:31:56.513Z,98527.72
2017-08-08T03:34:24.074Z,98512.11
2017-08-08T03:36:51.595Z,98501.31
2017-08-08T03:39:19.147Z,98500.08
2017-08-08T03:41:46.666Z,98492.88
2017-08-08T03:44:14.230Z,98485.05
2017-08-08T03:46:41.767Z,98479.69
2017-08-08T03:49:09.334Z,98472.53
2017-08-08T03:51:36.862Z,98463.56
2017-08-08T03:54:04.380Z,98468.14
2017-08-08T03:56:31.959Z,98479.59
2017-08-08T03:58:59.497Z,98483.05
2017-08-08T04:01:27.046Z,98492.77
2017-08-08T04:03:54.582Z,98496.62
2017-08-08T04:06:22.150Z,98501.27
2017-08-08T04:08:49.670Z,98499.97
2017-08-08T04:11:17.245Z,98492.16
2017-08-08T04:13:44.774Z,98485.16
2017-08-08T04:16:12.310Z,98478.95
2017-08-08T04:18:39.858Z,98471.63
2017-08-08T04:21:07.387Z,98451.57
2017-08-08T04:23:34.937Z,98451.05
2017-08-08T04:26:02.460Z,98462.11
2017-08-08T04:28:30.004Z,98457.85
2017-08-08T04:30:57.564Z,98440.84
2017-08-08T04:33:25.090Z,98440.29
2017-08-08T04:35:52.638Z,98426.73
2017-08-08T04:38:20.160Z,98415.27
2017-08-08T04:40:47.738Z,98416.80
2017-08-08T04:43:15.249Z,98425.36
2017-08-08T04:45:42.807Z,98417.38
2017-08-08T04:48:10.356Z,98418.64
2017-08-08T04:50:37.879Z,98420.45
2017-08-08T04:53:05.434Z,98426.95
2017-08-08T04:55:32.965Z,98425.97
2017-08-08T04:58:00.539Z,98423.27
2017-08-08T05:00:28.066Z,98427.23
2017-08-08T05:02:55.652Z,98430.11
2017-08-08T05:05:23.215Z,98436.93
2017-08-08T05:07:50.743Z,98443.63
2017-08-08T05:10:18.294Z,98447.63
2017-08-08T05:12:45.817Z,98448.34
2017-08-08T05:15:13.374Z,98451.13
2017-08-08T05:17:40.974Z,98453.23
2017-08-08T05:20:08.553Z,98451.02
2017-08-08T05:22:36.078Z,98445.61
2017-08-08T05:25:03.602Z,98447.63
2017-08-08T05:27:31.165Z,98452.85
2017-08-08T05:29:58.765Z,98447.02
2017-08-08T05:32:26.346Z,98449.00
2017-08-08T05:34:53.882Z,98441.33
2017-08-08T05:37:21.460Z,98448.53
2017-08-08T05:39:49.016Z,98456.82
2017-08-08T05:42:16.541Z,98460.87
2017-08-08T05:44:44.113Z,98458.32
2017-08-08T05:47:11.631Z,98462.17
2017-08-08T05:49:39.205Z,98464.88
2017-08-08T05:52:06.730Z,98471.69
2017-08-08T05:54:34.257Z,98471.58
2017-08-08T05:57:01.815Z,98473.33
2017-08-08T05:59:29.345Z,98464.95
2017-08-08T06:01:56.895Z,98465.48
2017-08-08T06:04:24.421Z,98458.45
2017-08-08T06:06:51.976Z,98454.40
2017-08-08T06:09:19.498Z,98463.81
2017-08-08T06:11:47.018Z,98466.94
2017-08-08T06:14:14.582Z,98468.61
2017-08-08T06:16:42.094Z,98465.10
2017-08-08T06:19:09.649Z,98455.20
2017-08-08T06:21:37.168Z,98461.82
2017-08-08T06:24:04.741Z,98456.22
2017-08-08T06:26:32.262Z,98449.56
2017-08-08T06:28:59.780Z,98448.16
2017-08-08T06:31:27.323Z,98443.41
2017-08-08T06:33:55.023Z,98444.36
2017-08-08T06:36:22.687Z,98451.52
2017-08-08T06:38:50.993Z,98457.36
2017-08-08T06:41:19.308Z,98457.08
2017-08-08T06:43:47.542Z,98465.95
2017-08-08T06:46:16.302Z,98472.15
2017-08-08T06:48:44.998Z,98459.37
2017-08-08T06:51:13.463Z,98450.51
2017-08-08T06:53:41.276Z,98445.10
2017-08-08T06:56:08.804Z,98435.45
2017-08-08T06:58:37.435Z,98428.87
2017-08-08T07:01:06.098Z,98417.44
2017-08-08T07:03:33.656Z,98412.32
2017-08-08T07:06:01.213Z,98421.32
2017-08-08T07:08:28.732Z,98413.14
2017-08-08T07:10:56.289Z,98415.91
2017-08-08T07:13:23.801Z,98418.88
2017-08-08T07:15:51.375Z,98423.86
2017-08-08T07:18:18.903Z,98425.23
2017-08-08T07:20:46.428Z,98427.39
2017-08-08T07:23:14.104Z,98435.09
2017-08-08T07:25:41.622Z,98435.87
2017-08-08T07:28:09.178Z,98432.34
2017-08-08T07:30:36.694Z,98436.73
2017-08-08T07:33:04.341Z,98445.73
2017-08-08T07:35:31.861Z,98439.91
2017-08-08T07:37:59.425Z,98429.34
2017-08-08T07:40:26.947Z,98429.78
2017-08-08T07:42:54.460Z,98424.96
2017-08-08T07:45:22.011Z,98422.34
2017-08-08T07:47:49.548Z,98416.51
2017-08-08T07:50:17.143Z,98427.41
2017-08-08T07:52:44.659Z,98436.13
2017-08-08T07:55:12.198Z,98437.02
2017-08-08T07:57:39.745Z,98434.90
2017-08-08T08:00:07.266Z,98445.98
2017-08-08T08:02:34.854Z,98433.81
2017-08-08T08:05:02.369Z,98439.91
2017-08-08T08:07:29.886Z,98453.70
2017-08-08T08:09:57.533Z,98462.77
2017-08-08T08:12:25.051Z,98461.22
2017-08-08T08:14:52.600Z,98463.31
2017-08-08T08:17:20.121Z,98465.41
2017-08-08T08:19:47.682Z,98467.30
2017-08-08T08:22:15.203Z,98462.36
2017-08-08T08:24:42.721Z,98458.32
2017-08-08T08:27:10.266Z,98443.22
2017-08-08T08:29:37.785Z,98440.59
2017-08-08T08:32:05.365Z,98440.98
2017-08-08T08:34:32.881Z,98429.36
2017-08-08T08:37:00.430Z,98418.14
2017-08-08T08:39:27.950Z,98435.03
2017-08-08T08:41:55.522Z,98442.97
2017-08-08T08:44:23.046Z,98456.61
2017-08-08T08:46:50.629Z,98462.43
2017-08-08T08:49:18.195Z,98465.13
2017-08-08T08:51:45.709Z,98482.17
2017-08-08T08:54:13.259Z,98486.86
2017-08-08T08:56:40.773Z,98483.20
2017-08-08T08:59:08.324Z,98488.48
2017-08-08T09:01:35.839Z,98492.19
2017-08-08T09:04:03.426Z,98487.13
2017-08-08T09:06:30.953Z,98492.53
2017-08-08T09:08:58.473Z,98496.73
2017-08-08T09:11:26.022Z,98503.04
2017-08-08T09:13:53.550Z,98502.41
2017-08-08T09:16:21.106Z,98497.77
2017-08-08T09:18:48.621Z,98493.56
2017-08-08T09:21:16.174Z,98495.58
2017-08-08T09:23:43.699Z,98500.84
2017-08-08T09:26:11.399Z,98496.47
2017-08-08T09:28:38.922Z,98508.09
2017-08-08T09:31:06.441Z,98509.34
2017-08-08T09:33:34.023Z,98511.61
2017-08-08T09:36:01.546Z,98516.11
2017-08-08T09:38:29.089Z,98515.50
2017-08-08T09:40:56.601Z,98517.72
2017-08-08T09:43:24.196Z,98517.11
2017-08-08T09:45:51.756Z,98520.50
2017-08-08T09:48:19.284Z,98517.23
2017-08-08T09:50:46.832Z,98520.83
2017-08-08T09:53:14.348Z,98536.38
2017-08-08T09:55:41.896Z,98540.98
2017-08-08T09:58:09.453Z,98544.11
2017-08-08T10:00:37.218Z,98542.36
2017-08-08T10:03:04.816Z,98531.45
2017-08-08T10:05:32.539Z,98529.98
2017-08-08T10:08:00.731Z,98536.13
2017-08-08T10:10:28.447Z,98543.48
2017-08-08T10:12:56.015Z,98555.00
2017-08-08T10:15:23.537Z,98561.30
2017-08-08T10:17:51.091Z,98569.53
2017-08-08T10:20:18.610Z,98564.81
2017-08-08T10:22:46.160Z,98560.89
2017-08-08T10:25:13.681Z,98558.59
2017-08-08T10:27:41.238Z,98558.80
2017-08-08T10:30:08.754Z,98548.31
2017-08-08T10:32:36.332Z,98553.67
2017-08-08T10:35:03.859Z,98540.13
2017-08-08T10:37:31.386Z,98537.42
2017-08-08T10:39:58.993Z,98525.91
2017-08-08T10:42:26.506Z,98509.00
2017-08-08T10:44:54.111Z,98512.38
2017-08-08T10:47:21.625Z,98521.59
2017-08-08T10:49:49.640Z,98489.72
2017-08-08T10:52:17.454Z,98479.09
2017-08-08T10:54:46.422Z,98468.52
2017-08-08T10:57:14.110Z,98454.03
2017-08-08T10:59:41.630Z,98446.72
2017-08-08T11:02:09.176Z,98442.19
2017-08-08T11:04:36.779Z,98430.63
2017-08-08T11:07:04.335Z,98451.26
2017-08-08T11:09:31.846Z,98489.45
2017-08-08T11:11:59.392Z,98511.56
2017-08-08T11:14:26.910Z,98513.77
2017-08-08T11:16:54.467Z,98517.84
2017-08-08T11:19:23.008Z,98516.30
2017-08-08T11:21:50.622Z,98531.31
2017-08-08T11:24:18.135Z,98551.35
2017-08-08T11:26:45.710Z,98566.70
2017-08-08T11:29:13.231Z,98588.38
2017-08-08T11:31:40.753Z,98594.61
2017-08-08T11:34:08.307Z,98586.62
2017-08-08T11:36:35.965Z,98579.52
2017-08-08T11:39:03.556Z,98591.64
2017-08-08T11:41:31.105Z,98596.68
2017-08-08T11:43:58.653Z,98591.15
2017-08-08T11:46:26.164Z,98585.25
2017-08-08T11:48:53.724Z,98580.86
2017-08-08T11:51:21.241Z,98585.21
2017-08-08T11:53:48.788Z,98581.06
2017-08-08T11:56:16.305Z,98584.52
2017-08-08T11:58:43.826Z,98586.56
2017-08-08T12:01:11.373Z,98595.70
2017-08-08T12:03:38.890Z,98596.10
2017-08-08T12:06:06.447Z,98593.34
2017-08-08T12:08:34.059Z,98588.33
2017-08-08T12:11:01.601Z,98590.34
2017-08-08T12:13:29.176Z,98585.33
2017-08-08T12:15:56.721Z,98579.05
2017-08-08T12:18:24.234Z,98586.83
2017-08-08T12:20:51.776Z,98583.48
2017-08-08T12:23:19.280Z,98577.28
2017-08-08T12:25:46.833Z,98560.56
2017-08-08T12:28:14.371Z,98548.23
2017-08-08T12:30:41.893Z,98546.64
2017-08-08T12:33:09.448Z,98540.99
2017-08-08T12:35:36.963Z,98537.80
2017-08-08T12:38:04.525Z,98545.86
2017-08-08T12:40:32.131Z,98542.98
2017-08-08T12:42:59.690Z,98531.13
2017-08-08T12:45:27.205Z,98527.54
2017-08-08T12:47:54.751Z,98531.66
2017-08-08T12:50:22.261Z,98522.57
2017-08-08T12:52:49.817Z,98516.20
2017-08-08T12:55:17.334Z,98507.72
2017-08-08T12:57:44.900Z,98510.05
2017-08-08T13:00:12.419Z,98518.91
2017-08-08T13:02:39.933Z,98501.69
2017-08-08T13:05:07.493Z,98487.41
2017-08-08T13:07:35.026Z,98480.36
2017-08-08T13:10:02.579Z,98470.25
2017-08-08T13:12:30.099Z,98474.39
2017-08-08T13:14:57.657Z,98477.57
2017-08-08T13:17:25.177Z,98484.70
2017-08-08T13:19:52.724Z,98484.74
2017-08-08T13:22:20.238Z,98492.31
2017-08-08T13:24:47.760Z,98524.41
2017-08-08T13:27:15.309Z,98535.32
2017-08-08T13:29:42.824Z,98537.77
2017-08-08T13:32:10.462Z,98540.73
2017-08-08T13:34:37.976Z,98548.15
2017-08-08T13:37:05.527Z,98549.16
2017-08-08T13:39:33.068Z,98543.34
2017-08-08T13:42:00.639Z,98535.88
2017-08-08T13:44:28.160Z,98527.61
2017-08-08T13:46:55.673Z,98526.89
2017-08-08T13:49:23.223Z,98534.59
2017-08-08T13:51:50.750Z,98557.53
2017-08-08T13:54:18.397Z,98558.29
2017-08-08T13:56:45.918Z,98559.91
2017-08-08T13:59:13.466Z,98558.69
2017-08-08T14:01:41.006Z,98551.17
2017-08-08T14:04:08.571Z,98552.61
2017-08-08T14:06:36.095Z,98575.08
2017-08-08T14:09:03.609Z,98590.70
2017-08-08T14:11:31.171Z,98586.66
2017-08-08T14:13:58.699Z,98579.62
2017-08-08T14:16:26.237Z,98578.47
2017-08-08T14:18:53.753Z,98567.73
2017-08-08T14:21:21.303Z,98573.64
2017-08-08T14:23:48.819Z,98573.16
2017-08-08T14:26:16.722Z,98594.25
2017-08-08T14:28:44.255Z,98580.36
2017-08-08T14:31:11.777Z,98584.21
2017-08-08T14:33:39.394Z,98585.54
2017-08-08T14:36:06.919Z,98559.18
2017-08-08T14:38:34.471Z,98549.69
2017-08-08T14:41:01.986Z,98577.83
2017-08-08T14:43:29.537Z,98587.43
2017-08-08T14:45:57.089Z,98608.63
2017-08-08T14:48:24.633Z,98607.46
2017-08-08T14:50:52.149Z,98614.47
2017-08-08T14:53:19.713Z,98629.98
2017-08-08T14:55:48.239Z,98622.23
2017-08-08T14:58:16.015Z,98615.75
2017-08-08T15:00:44.867Z,98625.02
2017-08-08T15:03:13.832Z,98620.08
2017-08-08T15:05:42.916Z,98617.48
2017-08-08T15:08:11.917Z,98619.05
2017-08-08T15:10:41.478Z,98622.05
2017-08-08T15:13:09.363Z,98616.16
2017-08-08T15:15:38.299Z,98613.30
2017-08-08T15:18:07.129Z,98608.57
2017-08-08T15:20:35.908Z,98609.55
2017-08-08T15:23:04.681Z,98615.61
2017-08-08T15:25:33.216Z,98611.13
2017-08-08T15:28:00.806Z,98604.55
2017-08-08T15:30:28.318Z,98595.53
2017-08-08T15:32:55.884Z,98599.74
2017-08-08T15:35:23.410Z,98609.30
2017-08-08T15:37:50.958Z,98593.63
2017-08-08T15:40:18.474Z,98593.63
2017-08-08T15:42:46.025Z,98601.02
2017-08-08T15:45:13.545Z,98593.29
2017-08-08T15:47:41.063Z,98600.44
2017-08-08T15:50:08.606Z,98598.31
2017-08-08T15:52:36.864Z,98593.55
2017-08-08T15:55:05.938Z,98593.34
2017-08-08T15:57:34.771Z,98581.17
2017-08-08T16:00:02.732Z,98590.19
2017-08-08T16:02:31.358Z,98578.09
2017-08-08T16:04:59.323Z,98585.43
2017-08-08T16:07:28.333Z,98582.98
2017-08-08T16:09:56.514Z,98581.92
2017-08-08T16:12:24.415Z,98572.87
2017-08-08T16:14:52.809Z,98569.45
2017-08-08T16:17:20.823Z,98559.16
2017-08-08T16:19:48.776Z,98562.09
2017-08-08T16:22:17.563Z,98560.08
2017-08-08T16:24:45.142Z,98555.64
2017-08-08T16:27:12.699Z,98561.62
2017-08-08T16:29:40.222Z,98572.86
2017-08-08T16:32:07.768Z,98571.33
2017-08-08T16:34:35.288Z,98574.30
2017-08-08T16:37:02.864Z,98579.64
2017-08-08T16:39:30.401Z,98572.39
2017-08-08T16:41:57.956Z,98570.44
2017-08-08T16:44:25.469Z,98570.11
2017-08-08T16:46:53.043Z,98577.84
2017-08-08T16:49:20.566Z,98575.77
2017-08-08T16:51:48.093Z,98573.85
2017-08-08T16:54:15.645Z,98579.94
2017-08-08T16:56:43.164Z,98578.43
2017-08-08T16:59:10.715Z,98579.12
2017-08-08T17:01:38.230Z,98589.27
2017-08-08T17:04:05.792Z,98596.83
2017-08-08T17:06:33.314Z,98588.14
2017-08-08T17:09:00.875Z,98603.20
2017-08-08T17:11:28.389Z,98603.31
2017-08-08T17:13:55.942Z,98596.42
2017-08-08T17:16:23.461Z,98602.77
2017-08-08T17:18:51.010Z,98603.31
2017-08-08T17:21:18.525Z,98613.20
2017-08-08T17:23:46.074Z,98612.40
2017-08-08T17:26:13.628Z,98618.85
2017-08-08T17:28:41.173Z,98610.49
2017-08-08T17:31:08.692Z,98624.23
2017-08-08T17:33:36.261Z,98625.89
2017-08-08T17:36:03.778Z,98634.28
2017-08-08T17:38:31.297Z,98644.94
2017-08-08T17:40:58.839Z,98638.75
2017-08-08T17:43:26.360Z,98639.26
2017-08-08T17:45:53.905Z,98634.34
2017-08-08T17:48:21.429Z,98636.80
2017-08-08T17:50:48.984Z,98643.77
2017-08-08T17:53:16.511Z,98639.98
2017-08-08T17:55:44.057Z,98646.77
2017-08-08T17:58:11.581Z,98657.06
2017-08-08T18:00:39.128Z,98664.53
2017-08-08T18:03:06.664Z,98669.48
2017-08-08T18:05:34.221Z,98676.55
2017-08-08T18:08:01.740Z,98674.91
2017-08-08T18:10:29.318Z,98662.70
2017-08-08T18:12:56.835Z,98678.86
2017-08-08T18:15:24.353Z,98678.42
2017-08-08T18:17:51.921Z,98677.74
2017-08-08T18:20:19.436Z,98681.27
2017-08-08T18:22:46.994Z,98674.39
2017-08-08T18:25:14.521Z,98676.41
2017-08-08T18:27:42.166Z,98675.05
2017-08-08T18:30:09.943Z,98671.72
2017-08-08T18:32:37.748Z,98676.89
2017-08-08T18:35:05.666Z,98673.33
2017-08-08T18:37:34.669Z,98679.09
2017-08-08T18:40:04.020Z,98686.70
2017-08-08T18:42:31.624Z,98690.34
2017-08-08T18:44:59.564Z,98687.97
2017-08-08T18:47:27.147Z,98687.83
2017-08-08T18:49:55.566Z,98680.98
2017-08-08T18:52:23.254Z,98684.83
2017-08-08T18:54:50.814Z,98686.41
2017-08-08T18:57:18.332Z,98686.74
2017-08-08T18:59:46.032Z,98690.30
2017-08-08T19:02:14.581Z,98701.62
2017-08-08T19:04:43.394Z,98699.00
2017-08-08T19:07:12.189Z,98694.86
2017-08-08T19:09:41.146Z,98703.66
2017-08-08T19:12:10.214Z,98703.80
2017-08-08T19:14:38.986Z,98704.42
2017-08-08T19:17:07.729Z,98697.46
2017-08-08T19:19:36.737Z,98702.56
2017-08-08T19:22:04.937Z,98704.32
2017-08-08T19:24:32.501Z,98713.22
2017-08-08T19:27:00.017Z,98718.50
2017-08-08T19:29:27.564Z,98731.47
2017-08-08T19:31:55.079Z,98741.56
2017-08-08T19:34:22.631Z,98746.59
2017-08-08T19:36:50.150Z,98750.98
2017-08-08T19:39:17.708Z,98756.09
2017-08-08T19:41:45.225Z,98759.27
2017-08-08T19:44:12.782Z,98765.84
2017-08-08T19:46:40.294Z,98768.44
2017-08-08T19:49:07.814Z,98771.48
2017-08-08T19:51:35.357Z,98779.54
2017-08-08T19:54:02.870Z,98776.03
2017-08-08T19:56:30.432Z,98775.14
2017-08-08T19:58:57.954Z,98773.72
2017-08-08T20:01:25.497Z,98773.64
2017-08-08T20:03:53.014Z,98781.91
2017-08-08T20:06:20.568Z,98779.77
2017-08-08T20:08:48.089Z,98768.77
2017-08-08T20:11:15.637Z,98761.28
2017-08-08T20:13:43.150Z,98758.66
2017-08-08T20:16:10.703Z,98766.98
2017-08-08T20:18:38.226Z,98773.52
2017-08-08T20:21:05.772Z,98767.44
2017-08-08T20:23:33.303Z,98769.75
2017-08-08T20:26:00.858Z,98772.20
2017-08-08T20:28:28.374Z,98774.98
2017-08-08T20:30:55.922Z,98769.69
2017-08-08T20:33:23.439Z,98775.47
2017-08-08T20:35:51.003Z,98783.52
2017-08-08T20:38:18.521Z,98795.41
2017-08-08T20:40:46.036Z,98795.95
2017-08-08T20:43:13.594Z,98791.67
2017-08-08T20:45:41.141Z,98807.00
2017-08-08T20:48:08.690Z,98807.81
2017-08-08T20:50:36.220Z,98814.33
2017-08-08T20:53:03.770Z,98816.89
2017-08-08T20:55:31.362Z,98818.14
2017-08-08T20:57:58.928Z,98814.22
2017-08-08T21:00:26.600Z,98819.56
2017-08-08T21:02:54.146Z,98820.30
2017-08-08T21:05:21.670Z,98828.32
2017-08-08T21:07:49.230Z,98825.14
2017-08-08T21:10:16.777Z,98818.29
2017-08-08T21:12:44.332Z,98836.50
2017-08-08T21:15:11.854Z,98832.18
2017-08-08T21:17:39.416Z,98837.19
2017-08-08T21:20:06.942Z,98838.01
2017-08-08T21:22:34.465Z,98847.50
2017-08-08T21:25:02.013Z,98850.70
2017-08-08T21:27:29.531Z,98853.82
2017-08-08T21:29:57.938Z,98855.11
2017-08-08T21:32:25.470Z,98847.97
2017-08-08T21:34:53.067Z,98854.34
2017-08-08T21:37:20.600Z,98855.08
2017-08-08T21:39:48.170Z,98846.09
2017-08-08T21:42:15.691Z,98851.95
2017-08-08T21:44:43.239Z,98848.12
2017-08-08T21:47:10.761Z,98840.25
2017-08-08T21:49:38.314Z,98832.86
2017-08-08T21:52:05.833Z,98836.43
2017-08-08T21:54:33.386Z,98858.21
2017-08-08T21:57:00.906Z,98857.78
2017-08-08T21:59:28.463Z,98860.58
2017-08-08T22:01:55.975Z,98864.58
2017-08-08T22:04:23.526Z,98863.43
2017-08-08T22:06:51.041Z,98867.55
2017-08-08T22:09:18.609Z,98863.38
2017-08-08T22:11:46.224Z,98870.78
2017-08-08T22:14:13.746Z,98871.19
2017-08-08T22:16:41.288Z,98876.47
2017-08-08T22:19:08.806Z,98883.84
2017-08-08T22:21:36.362Z,98888.11
2017-08-08T22:24:03.888Z,98885.56
2017-08-08T22:26:31.454Z,98884.33
2017-08-08T22:28:58.970Z,98886.20
2017-08-08T22:31:26.513Z,98899.61
2017-08-08T22:33:54.066Z,98889.98
2017-08-08T22:36:21.688Z,98889.83
2017-08-08T22:38:49.197Z,98900.26
2017-08-08T22:41:16.754Z,98900.95
2017-08-08T22:43:44.294Z,98908.48
2017-08-08T22:46:11.836Z,98901.05
2017-08-08T22:48:39.353Z,98906.42
2017-08-08T22:51:06.902Z,98913.28
2017-08-08T22:53:34.423Z,98908.16
2017-08-08T22:56:01.985Z,98916.70
2017-08-08T22:58:29.507Z,98915.01
2017-08-08T23:00:57.050Z,98918.10
2017-08-08T23:03:24.592Z,98923.03
2017-08-08T23:05:52.114Z,98920.97
2017-08-08T23:08:19.678Z,98918.00
2017-08-08T23:10:47.194Z,98908.89
2017-08-08T23:13:14.750Z,98927.13
2017-08-08T23:15:42.271Z,98921.63
2017-08-08T23:18:09.816Z,98929.61
2017-08-08T23:20:37.334Z,98933.13
2017-08-08T23:23:04.885Z,98931.72
2017-08-08T23:25:32.394Z,98924.17
2017-08-08T23:27:59.944Z,98922.05
2017-08-08T23:30:27.458Z,98923.34
2017-08-08T23:32:55.006Z,98930.95
2017-08-08T23:35:22.520Z,98929.80
2017-08-08T23:37:50.082Z,98932.70
2017-08-08T23:40:17.601Z,98932.66
2017-08-08T23:42:45.121Z,98938.36
2017-08-08T23:45:12.681Z,98941.87
2017-08-08T23:47:40.198Z,98946.75
2017-08-08T23:50:07.752Z,98942.50
2017-08-08T23:52:35.270Z,98951.40
2017-08-08T23:55:02.821Z,98954.21
2017-08-08T23:57:30.367Z,98946.84
2017-08-08T23:59:57.952Z,98960.16
